createdAt,value
2019-01-05T00:00:00.718Z,1028.76
2019-01-05T00:01:00.447Z,1028.74
2019-01-05T00:02:00.532Z,1028.79
2019-01-05T00:03:00.509Z,1028.78
2019-01-05T00:04:00.601Z,1028.77
2019-01-05T00:05:00.628Z,1028.76
2019-01-05T00:06:00.904Z,1028.78
2019-01-05T00:07:00.633Z,1028.75
2019-01-05T00:08:00.715Z,1028.77
2019-01-05T00:09:00.695Z,1028.75
2019-01-05T00:10:00.725Z,1028.76
2019-01-05T00:12:00.846Z,1028.68
2019-01-05T00:13:01.133Z,1028.71
2019-01-05T00:14:00.846Z,1028.67
2019-01-05T00:15:00.879Z,1028.69
2019-01-05T00:16:00.963Z,1028.68
2019-01-05T00:17:00.982Z,1028.69
2019-01-05T00:18:00.968Z,1028.56
2019-01-05T00:19:01.308Z,1028.57
2019-01-05T00:20:01.033Z,1028.60
2019-01-05T00:21:01.112Z,1028.57
2019-01-05T00:22:01.102Z,1028.55
2019-01-05T00:23:01.129Z,1028.56
2019-01-05T00:24:01.203Z,1028.54
2019-01-05T00:25:01.484Z,1028.56
2019-01-05T00:26:01.260Z,1028.54
2019-01-05T00:27:01.240Z,1028.57
2019-01-05T00:28:01.317Z,1028.57
2019-01-05T00:29:01.334Z,1028.51
2019-01-05T00:30:01.343Z,1028.53
2019-01-05T00:31:01.711Z,1028.54
2019-01-05T00:33:01.732Z,1028.45
2019-01-05T00:34:01.498Z,1028.42
2019-01-05T00:35:01.496Z,1028.44
2019-01-05T00:36:01.565Z,1028.43
2019-01-05T00:37:01.551Z,1028.41
2019-01-05T00:38:01.578Z,1028.38
2019-01-05T00:39:01.905Z,1028.39
2019-01-05T00:40:01.687Z,1028.39
2019-01-05T00:41:01.665Z,1028.35
2019-01-05T00:42:01.754Z,1028.35
2019-01-05T00:43:01.723Z,1028.34
2019-01-05T00:44:01.753Z,1028.32
2019-01-05T00:45:01.793Z,1028.35
2019-01-05T00:46:02.143Z,1028.35
2019-01-05T00:47:01.891Z,1028.32
2019-01-05T00:48:01.928Z,1028.33
2019-01-05T00:49:02.006Z,1028.33
2019-01-05T00:50:01.989Z,1028.35
2019-01-05T00:51:01.967Z,1028.40
2019-01-05T00:52:02.046Z,1028.38
2019-01-05T00:53:02.383Z,1028.35
2019-01-05T00:54:02.062Z,1028.41
2019-01-05T00:55:02.139Z,1028.37
2019-01-05T00:56:02.175Z,1028.33
2019-01-05T00:57:02.162Z,1028.35
2019-01-05T00:58:02.233Z,1028.35
2019-01-05T00:59:02.214Z,1028.38
2019-01-05T01:00:02.540Z,1028.42
2019-01-05T01:01:02.268Z,1028.52
2019-01-05T01:02:02.298Z,1028.46
2019-01-05T01:03:02.394Z,1028.37
2019-01-05T01:04:02.412Z,1028.37
2019-01-05T01:05:02.418Z,1028.32
2019-01-05T01:06:02.421Z,1028.38
2019-01-05T01:07:02.755Z,1028.33
2019-01-05T01:08:02.486Z,1028.33
2019-01-05T01:09:02.566Z,1028.34
2019-01-05T01:10:02.600Z,1028.38
2019-01-05T01:11:02.574Z,1028.39
2019-01-05T01:12:02.667Z,1028.42
2019-01-05T01:13:02.650Z,1028.48
2019-01-05T01:14:02.967Z,1028.42
2019-01-05T01:15:02.751Z,1028.47
2019-01-05T01:16:02.729Z,1028.48
2019-01-05T01:17:02.758Z,1028.53
2019-01-05T01:18:02.795Z,1028.50
2019-01-05T01:19:02.871Z,1028.47
2019-01-05T01:20:02.895Z,1028.44
2019-01-05T01:21:03.182Z,1028.48
2019-01-05T01:22:02.931Z,1028.53
2019-01-05T01:23:02.989Z,1028.56
2019-01-05T01:24:03.019Z,1028.61
2019-01-05T01:25:03.065Z,1028.58
2019-01-05T01:26:03.033Z,1028.60
2019-01-05T01:27:03.076Z,1028.62
2019-01-05T01:28:03.398Z,1028.62
2019-01-05T01:29:03.127Z,1028.63
2019-01-05T01:30:03.205Z,1028.63
2019-01-05T01:31:03.184Z,1028.61
2019-01-05T01:32:03.266Z,1028.59
2019-01-05T01:33:03.296Z,1028.62
2019-01-05T01:34:03.330Z,1028.52
2019-01-05T01:35:03.606Z,1028.53
2019-01-05T01:36:03.392Z,1028.58
2019-01-05T01:37:03.416Z,1028.54
2019-01-05T01:38:03.458Z,1028.53
2019-01-05T01:39:03.427Z,1028.53
2019-01-05T01:40:03.512Z,1028.55
2019-01-05T01:41:03.541Z,1028.58
2019-01-05T01:42:03.817Z,1028.57
2019-01-05T01:44:03.633Z,1028.58
2019-01-05T01:45:03.660Z,1028.55
2019-01-05T01:46:03.643Z,1028.55
2019-01-05T01:47:03.676Z,1028.57
2019-01-05T01:48:03.756Z,1028.58
2019-01-05T01:49:04.032Z,1028.52
2019-01-05T01:50:03.810Z,1028.57
2019-01-05T01:51:03.793Z,1028.46
2019-01-05T01:52:03.871Z,1028.48
2019-01-05T01:53:03.864Z,1028.49
2019-01-05T01:54:03.891Z,1028.45
2019-01-05T01:55:04.264Z,1028.43
2019-01-05T01:56:04.005Z,1028.42
2019-01-05T01:57:03.979Z,1028.36
2019-01-05T01:59:04.043Z,1028.38
2019-01-05T02:00:04.121Z,1028.35
2019-01-05T02:01:04.396Z,1028.34
2019-01-05T02:02:04.129Z,1028.26
2019-01-05T02:03:05.974Z,1028.31
2019-01-05T02:04:04.242Z,1028.29
2019-01-05T02:05:04.285Z,1028.26
2019-01-05T02:06:04.254Z,1028.29
2019-01-05T02:07:04.584Z,1028.27
2019-01-05T02:08:04.377Z,1028.21
2019-01-05T02:09:04.334Z,1028.23
2019-01-05T02:10:04.430Z,1028.22
2019-01-05T02:13:04.521Z,1028.23
2019-01-05T02:14:04.794Z,1028.21
2019-01-05T02:15:05.938Z,1028.19
2019-01-05T02:16:04.852Z,1028.22
2019-01-05T02:17:04.589Z,1028.18
2019-01-05T02:18:04.669Z,1028.19
2019-01-05T02:19:04.694Z,1028.25
2019-01-05T02:21:04.754Z,1028.13
2019-01-05T02:22:05.043Z,1028.12
2019-01-05T02:23:04.817Z,1028.09
2019-01-05T02:24:04.845Z,1028.06
2019-01-05T02:25:04.826Z,1028.05
2019-01-05T02:26:04.915Z,1028.04
2019-01-05T02:28:04.929Z,1028.02
2019-01-05T02:29:05.251Z,1028.04
2019-01-05T02:30:04.980Z,1027.96
2019-01-05T02:31:05.010Z,1027.89
2019-01-05T02:32:05.132Z,1027.92
2019-01-05T02:33:05.143Z,1027.92
2019-01-05T02:34:05.129Z,1027.90
2019-01-05T02:35:05.150Z,1027.86
2019-01-05T02:36:05.463Z,1027.92
2019-01-05T02:37:05.245Z,1027.86
2019-01-05T02:38:05.263Z,1027.86
2019-01-05T02:39:05.260Z,1027.86
2019-01-05T02:40:05.279Z,1027.86
2019-01-05T02:41:05.368Z,1027.79
2019-01-05T02:42:05.354Z,1027.79
2019-01-05T02:43:05.673Z,1027.76
2019-01-05T02:44:05.469Z,1027.73
2019-01-05T02:45:05.475Z,1027.74
2019-01-05T02:46:05.516Z,1027.71
2019-01-05T02:47:05.608Z,1027.62
2019-01-05T02:48:05.580Z,1027.63
2019-01-05T02:49:05.606Z,1027.63
2019-01-05T02:50:05.910Z,1027.60
2019-01-05T02:51:05.626Z,1027.61
2019-01-05T02:52:05.709Z,1027.55
2019-01-05T02:53:05.730Z,1027.59
2019-01-05T02:54:05.707Z,1027.49
2019-01-05T02:55:05.743Z,1027.52
2019-01-05T02:56:05.820Z,1027.49
2019-01-05T02:57:06.106Z,1027.51
2019-01-05T02:58:05.885Z,1027.55
2019-01-05T02:59:05.869Z,1027.58
2019-01-05T03:00:05.944Z,1027.54
2019-01-05T03:01:05.925Z,1027.53
2019-01-05T03:02:05.956Z,1027.49
2019-01-05T03:03:06.009Z,1027.50
2019-01-05T03:04:06.312Z,1027.47
2019-01-05T03:05:06.045Z,1027.46
2019-01-05T03:06:06.084Z,1027.41
2019-01-05T03:07:06.104Z,1027.36
2019-01-05T03:08:06.186Z,1027.39
2019-01-05T03:09:06.216Z,1027.36
2019-01-05T03:10:06.197Z,1027.34
2019-01-05T03:11:06.533Z,1027.34
2019-01-05T03:12:06.340Z,1027.35
2019-01-05T03:13:06.341Z,1027.36
2019-01-05T03:14:06.385Z,1027.31
2019-01-05T03:15:06.355Z,1027.30
2019-01-05T03:16:06.386Z,1027.25
2019-01-05T03:17:06.431Z,1027.21
2019-01-05T03:18:06.799Z,1027.15
2019-01-05T03:19:06.538Z,1027.23
2019-01-05T03:20:06.548Z,1027.17
2019-01-05T03:21:06.544Z,1027.21
2019-01-05T03:22:06.678Z,1027.18
2019-01-05T03:23:06.648Z,1027.14
2019-01-05T03:24:06.623Z,1027.16
2019-01-05T03:25:06.963Z,1027.18
2019-01-05T03:27:06.764Z,1027.16
2019-01-05T03:28:06.845Z,1027.12
2019-01-05T03:29:06.847Z,1027.16
2019-01-05T03:30:06.809Z,1027.14
2019-01-05T03:31:06.856Z,1027.14
2019-01-05T03:32:07.230Z,1027.09
2019-01-05T03:33:06.975Z,1027.11
2019-01-05T03:35:07.038Z,1027.11
2019-01-05T03:36:07.044Z,1027.04
2019-01-05T03:37:07.018Z,1027.07
2019-01-05T03:38:07.047Z,1027.11
2019-01-05T03:39:07.382Z,1027.06
2019-01-05T03:40:07.170Z,1027.04
2019-01-05T03:41:07.146Z,1026.97
2019-01-05T03:42:07.249Z,1026.92
2019-01-05T03:43:07.199Z,1026.93
2019-01-05T03:44:07.279Z,1026.95
2019-01-05T03:45:07.314Z,1026.92
2019-01-05T03:46:07.592Z,1026.88
2019-01-05T03:47:07.331Z,1026.84
2019-01-05T03:48:07.408Z,1026.83
2019-01-05T03:49:07.392Z,1026.85
2019-01-05T03:50:07.468Z,1026.83
2019-01-05T03:51:07.451Z,1026.84
2019-01-05T03:52:07.475Z,1026.81
2019-01-05T03:53:07.832Z,1026.79
2019-01-05T03:55:07.626Z,1026.75
2019-01-05T03:56:07.651Z,1026.73
2019-01-05T03:57:07.630Z,1026.71
2019-01-05T03:58:07.657Z,1026.67
2019-01-05T04:00:07.771Z,1026.62
2019-01-05T04:01:08.097Z,1026.64
2019-01-05T04:02:07.806Z,1026.62
2019-01-05T04:03:07.818Z,1026.58
2019-01-05T04:04:07.843Z,1026.61
2019-01-05T04:05:07.915Z,1026.60
2019-01-05T04:06:07.899Z,1026.64
2019-01-05T04:07:07.931Z,1026.65
2019-01-05T04:08:08.262Z,1026.65
2019-01-05T04:09:07.989Z,1026.63
2019-01-05T04:10:08.072Z,1026.63
2019-01-05T04:11:08.047Z,1026.65
2019-01-05T04:12:08.135Z,1026.68
2019-01-05T04:13:08.114Z,1026.66
2019-01-05T04:14:08.196Z,1026.62
2019-01-05T04:15:08.533Z,1026.61
2019-01-05T04:16:08.255Z,1026.57
2019-01-05T04:17:08.233Z,1026.60
2019-01-05T04:18:08.310Z,1026.57
2019-01-05T04:19:08.295Z,1026.51
2019-01-05T04:20:08.375Z,1026.54
2019-01-05T04:21:08.406Z,1026.49
2019-01-05T04:22:08.690Z,1026.49
2019-01-05T04:23:08.460Z,1026.49
2019-01-05T04:24:08.448Z,1026.44
2019-01-05T04:25:08.524Z,1026.47
2019-01-05T04:26:08.504Z,1026.49
2019-01-05T04:27:08.545Z,1026.44
2019-01-05T04:28:08.621Z,1026.44
2019-01-05T04:29:08.897Z,1026.43
2019-01-05T04:30:08.695Z,1026.47
2019-01-05T04:31:08.708Z,1026.35
2019-01-05T04:34:08.780Z,1026.34
2019-01-05T04:35:08.793Z,1026.28
2019-01-05T04:36:09.125Z,1026.27
2019-01-05T04:37:08.893Z,1026.28
2019-01-05T04:39:08.956Z,1026.25
2019-01-05T04:40:08.982Z,1026.23
2019-01-05T04:41:08.981Z,1026.23
2019-01-05T04:42:09.293Z,1026.25
2019-01-05T04:43:09.027Z,1026.21
2019-01-05T04:44:09.100Z,1026.25
2019-01-05T04:45:09.130Z,1026.27
2019-01-05T04:46:09.112Z,1026.30
2019-01-05T04:48:09.475Z,1026.22
2019-01-05T04:50:09.289Z,1026.22
2019-01-05T04:51:09.319Z,1026.22
2019-01-05T04:52:09.345Z,1026.27
2019-01-05T04:53:09.322Z,1026.29
2019-01-05T04:54:09.661Z,1026.29
2019-01-05T04:55:09.441Z,1026.28
2019-01-05T04:56:09.432Z,1026.23
2019-01-05T04:57:09.449Z,1026.20
2019-01-05T04:58:09.481Z,1026.19
2019-01-05T04:59:09.552Z,1026.17
2019-01-05T05:00:09.658Z,1026.17
2019-01-05T05:01:10.063Z,1026.16
2019-01-05T05:03:09.629Z,1026.13
2019-01-05T05:05:09.751Z,1026.08
2019-01-05T05:06:09.723Z,1026.10
2019-01-05T05:07:09.774Z,1026.05
2019-01-05T05:08:10.079Z,1026.02
2019-01-05T05:09:09.816Z,1026.01
2019-01-05T05:10:11.008Z,1026.04
2019-01-05T05:11:09.866Z,1025.98
2019-01-05T05:12:10.007Z,1025.99
2019-01-05T05:13:10.002Z,1026.01
2019-01-05T05:15:10.044Z,1026.01
2019-01-05T05:16:10.337Z,1025.96
2019-01-05T05:17:10.102Z,1026.02
2019-01-05T05:18:10.086Z,1025.96
2019-01-05T05:19:10.115Z,1025.97
2019-01-05T05:20:10.199Z,1025.99
2019-01-05T05:21:10.201Z,1025.97
2019-01-05T05:22:10.258Z,1026.00
2019-01-05T05:23:10.536Z,1026.01
2019-01-05T05:24:10.320Z,1026.03
2019-01-05T05:25:10.292Z,1026.03
2019-01-05T05:26:10.325Z,1025.96
2019-01-05T05:27:10.403Z,1025.97
2019-01-05T05:28:10.431Z,1025.98
2019-01-05T05:29:10.473Z,1025.90
2019-01-05T05:30:10.743Z,1025.88
2019-01-05T05:31:10.478Z,1025.86
2019-01-05T05:32:10.559Z,1025.83
2019-01-05T05:34:10.624Z,1025.91
2019-01-05T05:37:10.704Z,1025.86
2019-01-05T05:38:10.996Z,1025.89
2019-01-05T05:39:10.873Z,1025.88
2019-01-05T05:41:10.780Z,1025.87
2019-01-05T05:43:10.894Z,1025.86
2019-01-05T05:44:10.934Z,1025.89
2019-01-05T05:47:11.369Z,1025.87
2019-01-05T05:48:11.146Z,1025.84
2019-01-05T05:50:11.106Z,1025.89
2019-01-05T05:51:11.140Z,1025.84
2019-01-05T05:53:11.195Z,1025.96
2019-01-05T05:54:11.475Z,1025.90
2019-01-05T05:55:11.262Z,1025.93
2019-01-05T05:56:11.285Z,1025.95
2019-01-05T05:57:11.314Z,1025.95
2019-01-05T05:58:11.347Z,1026.08
2019-01-05T06:00:11.462Z,1026.02
2019-01-05T06:02:11.722Z,1026.00
2019-01-05T06:03:11.458Z,1026.06
2019-01-05T06:05:11.564Z,1026.02
2019-01-05T06:06:11.593Z,1025.96
2019-01-05T06:07:11.580Z,1025.99
2019-01-05T06:08:11.896Z,1026.00
2019-01-05T06:09:11.634Z,1025.98
2019-01-05T06:10:11.720Z,1025.96
2019-01-05T06:11:11.696Z,1025.97
2019-01-05T06:12:11.779Z,1025.95
2019-01-05T06:13:11.757Z,1025.96
2019-01-05T06:14:12.160Z,1025.96
2019-01-05T06:17:11.916Z,1025.90
2019-01-05T06:18:11.904Z,1025.96
2019-01-05T06:19:11.935Z,1025.90
2019-01-05T06:21:12.042Z,1025.94
2019-01-05T06:23:12.373Z,1025.91
2019-01-05T06:25:12.206Z,1025.93
2019-01-05T06:26:12.145Z,1025.89
2019-01-05T06:27:12.245Z,1025.89
2019-01-05T06:32:12.625Z,1025.82
2019-01-05T06:33:12.425Z,1025.81
2019-01-05T06:34:12.439Z,1025.85
2019-01-05T06:35:12.472Z,1025.85
2019-01-05T06:36:12.549Z,1025.86
2019-01-05T06:37:12.529Z,1025.85
2019-01-05T06:39:12.894Z,1025.84
2019-01-05T06:41:12.651Z,1025.95
2019-01-05T06:42:12.687Z,1025.90
2019-01-05T06:43:12.665Z,1025.94
2019-01-05T06:44:12.747Z,1025.97
2019-01-05T06:45:13.020Z,1025.90
2019-01-05T06:46:12.809Z,1025.92
2019-01-05T06:47:12.832Z,1025.95
2019-01-05T06:48:12.884Z,1025.99
2019-01-05T06:52:13.075Z,1025.96
2019-01-05T06:53:13.321Z,1025.89
2019-01-05T06:54:13.046Z,1025.89
2019-01-05T06:55:13.073Z,1025.94
2019-01-05T06:56:13.532Z,1025.93
2019-01-05T06:57:13.087Z,1025.96
2019-01-05T06:58:13.206Z,1025.95
2019-01-05T06:59:13.465Z,1026.04
2019-01-05T07:01:13.275Z,1026.01
2019-01-05T07:04:13.414Z,1025.98
2019-01-05T07:05:13.640Z,1026.02
2019-01-05T07:06:13.409Z,1026.03
2019-01-05T07:07:13.439Z,1026.05
2019-01-05T07:10:13.531Z,1026.07
2019-01-05T07:11:13.571Z,1026.09
2019-01-05T07:13:13.883Z,1026.11
2019-01-05T07:14:13.605Z,1026.14
2019-01-05T07:17:13.744Z,1026.15
2019-01-05T07:18:13.840Z,1026.11
2019-01-05T07:20:14.195Z,1026.19
2019-01-05T07:22:13.898Z,1026.14
2019-01-05T07:23:13.888Z,1026.14
2019-01-05T07:24:13.979Z,1026.08
2019-01-05T07:26:14.012Z,1026.19
2019-01-05T07:28:14.083Z,1026.13
2019-01-05T07:29:14.141Z,1026.14
2019-01-05T07:30:14.196Z,1026.14
2019-01-05T07:31:14.139Z,1026.16
2019-01-05T07:32:14.165Z,1026.21
2019-01-05T07:33:14.243Z,1026.22
2019-01-05T07:34:14.632Z,1026.23
2019-01-05T07:35:14.314Z,1026.23
2019-01-05T07:36:14.327Z,1026.21
2019-01-05T07:37:14.349Z,1026.21
2019-01-05T07:38:14.386Z,1026.19
2019-01-05T07:39:14.411Z,1026.25
2019-01-05T07:40:14.453Z,1026.27
2019-01-05T07:42:14.761Z,1026.23
2019-01-05T07:44:14.578Z,1026.27
2019-01-05T07:45:15.304Z,1026.28
2019-01-05T07:46:14.629Z,1026.31
2019-01-05T07:47:14.670Z,1026.30
2019-01-05T07:48:15.002Z,1026.27
2019-01-05T07:50:14.758Z,1026.37
2019-01-05T07:51:14.786Z,1026.33
2019-01-05T07:54:14.893Z,1026.32
2019-01-05T07:56:15.192Z,1026.31
2019-01-05T07:57:14.916Z,1026.27
2019-01-05T07:58:15.007Z,1026.25
2019-01-05T07:59:15.081Z,1026.29
2019-01-05T08:00:15.009Z,1026.31
2019-01-05T08:01:15.037Z,1026.29
2019-01-05T08:02:15.079Z,1026.26
2019-01-05T08:03:17.641Z,1026.22
2019-01-05T08:04:15.176Z,1026.27
2019-01-05T08:05:15.195Z,1026.27
2019-01-05T08:06:16.011Z,1026.26
2019-01-05T08:07:15.260Z,1026.28
2019-01-05T08:10:15.351Z,1026.26
2019-01-05T08:11:15.644Z,1026.22
2019-01-05T08:12:15.433Z,1026.30
2019-01-05T08:13:15.453Z,1026.26
2019-01-05T08:14:15.481Z,1026.25
2019-01-05T08:15:15.516Z,1026.23
2019-01-05T08:16:15.578Z,1026.26
2019-01-05T08:17:16.409Z,1026.23
2019-01-05T08:18:15.604Z,1026.22
2019-01-05T08:19:15.651Z,1026.24
2019-01-05T08:20:15.667Z,1026.24
2019-01-05T08:21:15.691Z,1026.27
2019-01-05T08:22:15.729Z,1026.21
2019-01-05T08:23:16.061Z,1026.22
2019-01-05T08:25:15.808Z,1026.24
2019-01-05T08:26:15.790Z,1026.22
2019-01-05T08:27:15.881Z,1026.21
2019-01-05T08:30:15.988Z,1026.20
2019-01-05T08:31:16.293Z,1026.19
2019-01-05T08:32:16.022Z,1026.21
2019-01-05T08:33:16.053Z,1026.21
2019-01-05T08:34:16.026Z,1026.19
2019-01-05T08:35:16.063Z,1026.28
2019-01-05T08:36:16.141Z,1026.23
2019-01-05T08:38:16.196Z,1026.32
2019-01-05T08:39:16.488Z,1026.29
2019-01-05T08:40:16.256Z,1026.30
2019-01-05T08:42:16.325Z,1026.30
2019-01-05T08:43:16.309Z,1026.35
2019-01-05T08:44:16.389Z,1026.34
2019-01-05T08:45:16.420Z,1026.33
2019-01-05T08:46:16.694Z,1026.37
2019-01-05T08:48:16.505Z,1026.40
2019-01-05T08:49:16.528Z,1026.38
2019-01-05T08:50:16.515Z,1026.39
2019-01-05T08:51:16.548Z,1026.37
2019-01-05T08:52:16.574Z,1026.34
2019-01-05T08:53:16.908Z,1026.33
2019-01-05T08:54:16.692Z,1026.35
2019-01-05T08:55:16.765Z,1026.33
2019-01-05T08:57:16.731Z,1026.43
2019-01-05T08:58:16.760Z,1026.38
2019-01-05T08:59:16.789Z,1026.39
2019-01-05T09:00:17.127Z,1026.45
2019-01-05T09:01:16.844Z,1026.45
2019-01-05T09:02:16.907Z,1026.44
2019-01-05T09:03:16.911Z,1026.42
2019-01-05T09:04:16.940Z,1026.38
2019-01-05T09:05:17.064Z,1026.36
2019-01-05T09:06:17.004Z,1026.42
2019-01-05T09:07:17.333Z,1026.40
2019-01-05T09:09:17.096Z,1026.40
2019-01-05T09:10:17.169Z,1026.35
2019-01-05T09:11:17.153Z,1026.42
2019-01-05T09:12:17.264Z,1026.46
2019-01-05T09:13:17.258Z,1026.41
2019-01-05T09:14:17.542Z,1026.38
2019-01-05T09:16:17.361Z,1026.46
2019-01-05T09:17:17.437Z,1026.42
2019-01-05T09:19:17.547Z,1026.36
2019-01-05T09:22:17.850Z,1026.30
2019-01-05T09:23:17.574Z,1026.43
2019-01-05T09:24:18.323Z,1026.46
2019-01-05T09:25:17.627Z,1026.38
2019-01-05T09:26:17.742Z,1026.41
2019-01-05T09:27:20.717Z,1026.45
2019-01-05T09:28:17.721Z,1026.40
2019-01-05T09:29:19.120Z,1026.44
2019-01-05T09:30:17.788Z,1026.45
2019-01-05T09:31:17.829Z,1026.45
2019-01-05T09:33:17.893Z,1026.47
2019-01-05T09:34:17.863Z,1026.46
2019-01-05T09:35:17.953Z,1026.47
2019-01-05T09:36:18.265Z,1026.47
2019-01-05T09:37:17.971Z,1026.41
2019-01-05T09:39:18.002Z,1026.44
2019-01-05T09:40:18.095Z,1026.48
2019-01-05T09:41:18.219Z,1026.46
2019-01-05T09:42:18.269Z,1026.48
2019-01-05T09:43:18.449Z,1026.47
2019-01-05T09:44:18.206Z,1026.45
2019-01-05T09:45:18.211Z,1026.47
2019-01-05T09:47:18.307Z,1026.52
2019-01-05T09:48:18.331Z,1026.53
2019-01-05T09:49:18.357Z,1026.45
2019-01-05T09:50:18.734Z,1026.51
2019-01-05T09:52:18.812Z,1026.50
2019-01-05T09:53:18.490Z,1026.49
2019-01-05T09:54:18.529Z,1026.54
2019-01-05T09:56:18.582Z,1026.53
2019-01-05T09:57:18.924Z,1026.50
2019-01-05T09:58:18.589Z,1026.52
2019-01-05T09:59:18.632Z,1026.57
2019-01-05T10:00:18.775Z,1026.55
2019-01-05T10:01:18.677Z,1026.48
2019-01-05T10:03:18.790Z,1026.53
2019-01-05T10:04:19.219Z,1026.43
2019-01-05T10:06:18.890Z,1026.51
2019-01-05T10:07:18.958Z,1026.45
2019-01-05T10:09:19.015Z,1026.45
2019-01-05T10:10:19.005Z,1026.44
2019-01-05T10:11:19.365Z,1026.42
2019-01-05T10:12:19.064Z,1026.37
2019-01-05T10:13:19.106Z,1026.38
2019-01-05T10:14:19.177Z,1026.38
2019-01-05T10:16:19.275Z,1026.40
2019-01-05T10:18:19.257Z,1026.39
2019-01-05T10:19:20.011Z,1026.31
2019-01-05T10:21:19.344Z,1026.27
2019-01-05T10:22:20.172Z,1026.34
2019-01-05T10:23:19.930Z,1026.33
2019-01-05T10:24:20.080Z,1026.29
2019-01-05T10:25:19.459Z,1026.28
2019-01-05T10:26:19.817Z,1026.32
2019-01-05T10:27:19.489Z,1026.32
2019-01-05T10:28:19.512Z,1026.28
2019-01-05T10:29:19.597Z,1026.26
2019-01-05T10:31:19.614Z,1026.25
2019-01-05T10:32:19.783Z,1026.23
2019-01-05T10:33:21.025Z,1026.25
2019-01-05T10:35:19.790Z,1026.22
2019-01-05T10:36:19.814Z,1026.19
2019-01-05T10:38:19.867Z,1026.21
2019-01-05T10:39:20.008Z,1026.20
2019-01-05T10:40:20.232Z,1026.14
2019-01-05T10:42:20.111Z,1026.17
2019-01-05T10:44:20.031Z,1026.19
2019-01-05T10:45:20.083Z,1026.17
2019-01-05T10:48:20.142Z,1026.19
2019-01-05T10:50:20.711Z,1026.09
2019-01-05T10:53:20.290Z,1026.15
2019-01-05T10:54:20.355Z,1026.11
2019-01-05T10:55:20.545Z,1026.12
2019-01-05T10:56:20.417Z,1026.09
2019-01-05T10:57:20.703Z,1026.09
2019-01-05T10:58:20.469Z,1026.04
2019-01-05T11:00:20.553Z,1026.00
2019-01-05T11:01:20.571Z,1026.04
2019-01-05T11:02:20.647Z,1026.03
2019-01-05T11:04:20.653Z,1026.07
2019-01-05T11:05:20.764Z,1026.09
2019-01-05T11:06:20.677Z,1026.04
2019-01-05T11:07:20.769Z,1026.03
2019-01-05T11:08:20.782Z,1026.05
2019-01-05T11:09:20.778Z,1026.02
2019-01-05T11:10:20.789Z,1026.05
2019-01-05T11:11:21.236Z,1025.94
2019-01-05T11:12:20.923Z,1026.00
2019-01-05T11:13:20.960Z,1025.98
2019-01-05T11:14:21.017Z,1025.95
2019-01-05T11:15:20.946Z,1025.94
2019-01-05T11:16:21.041Z,1025.93
2019-01-05T11:18:21.082Z,1025.91
2019-01-05T11:19:21.418Z,1025.79
2019-01-05T11:20:21.251Z,1025.84
2019-01-05T11:22:21.223Z,1025.84
2019-01-05T11:23:21.734Z,1025.80
2019-01-05T11:24:21.364Z,1025.88
2019-01-05T11:25:21.250Z,1025.82
2019-01-05T11:26:21.339Z,1025.83
2019-01-05T11:27:21.381Z,1025.81
2019-01-05T11:28:21.398Z,1025.80
2019-01-05T11:30:21.459Z,1025.83
2019-01-05T11:31:21.489Z,1025.83
2019-01-05T11:33:21.862Z,1025.81
2019-01-05T11:34:21.594Z,1025.78
2019-01-05T11:35:21.564Z,1025.83
2019-01-05T11:36:21.637Z,1025.85
2019-01-05T11:37:21.666Z,1025.84
2019-01-05T11:38:21.652Z,1025.83
2019-01-05T11:40:21.835Z,1025.85
2019-01-05T11:41:22.100Z,1025.87
2019-01-05T11:42:21.932Z,1025.88
2019-01-05T11:43:21.925Z,1025.82
2019-01-05T11:44:21.886Z,1025.77
2019-01-05T11:45:21.914Z,1025.83
2019-01-05T11:46:22.113Z,1025.81
2019-01-05T11:47:21.984Z,1025.88
2019-01-05T11:49:22.342Z,1025.90
2019-01-05T11:50:22.132Z,1025.91
2019-01-05T11:52:22.266Z,1025.87
2019-01-05T11:53:22.114Z,1025.90
2019-01-05T11:54:22.203Z,1025.78
2019-01-05T11:55:22.541Z,1025.89
2019-01-05T11:56:22.263Z,1025.82
2019-01-05T11:57:22.336Z,1025.85
2019-01-05T11:58:22.325Z,1025.84
2019-01-05T12:00:22.752Z,1025.78
2019-01-05T12:01:22.612Z,1025.78
2019-01-05T12:02:23.764Z,1025.86
2019-01-05T12:03:22.516Z,1025.79
2019-01-05T12:04:22.553Z,1025.77
2019-01-05T12:05:22.556Z,1025.75
2019-01-05T12:06:22.560Z,1025.73
2019-01-05T12:07:22.596Z,1025.73
2019-01-05T12:08:22.652Z,1025.70
2019-01-05T12:09:22.982Z,1025.67
2019-01-05T12:10:22.730Z,1025.71
2019-01-05T12:11:22.661Z,1025.68
2019-01-05T12:12:22.843Z,1025.68
2019-01-05T12:15:22.834Z,1025.64
2019-01-05T12:16:23.189Z,1025.69
2019-01-05T12:17:22.901Z,1025.79
2019-01-05T12:18:22.880Z,1025.71
2019-01-05T12:19:22.991Z,1025.68
2019-01-05T12:20:22.999Z,1025.76
2019-01-05T12:21:23.064Z,1025.66
2019-01-05T12:22:23.072Z,1025.71
2019-01-05T12:23:23.645Z,1025.71
2019-01-05T12:24:23.115Z,1025.72
2019-01-05T12:25:23.148Z,1025.69
2019-01-05T12:26:23.263Z,1025.67
2019-01-05T12:27:23.163Z,1025.64
2019-01-05T12:28:23.241Z,1025.61
2019-01-05T12:29:23.266Z,1025.54
2019-01-05T12:30:23.276Z,1025.56
2019-01-05T12:32:23.376Z,1025.60
2019-01-05T12:33:23.397Z,1025.64
2019-01-05T12:34:23.422Z,1025.58
2019-01-05T12:35:24.006Z,1025.68
2019-01-05T12:36:24.442Z,1025.71
2019-01-05T12:37:23.961Z,1025.65
2019-01-05T12:38:24.029Z,1025.67
2019-01-05T12:39:24.051Z,1025.73
2019-01-05T12:40:23.605Z,1025.72
2019-01-05T12:41:23.644Z,1025.73
2019-01-05T12:42:23.666Z,1025.61
2019-01-05T12:43:25.044Z,1025.68
2019-01-05T12:44:23.755Z,1025.61
2019-01-05T12:45:23.787Z,1025.62
2019-01-05T12:46:23.793Z,1025.68
2019-01-05T12:47:23.858Z,1025.66
2019-01-05T12:48:23.847Z,1025.67
2019-01-05T12:49:23.880Z,1025.62
2019-01-05T12:50:24.317Z,1025.63
2019-01-05T12:51:23.940Z,1025.58
2019-01-05T12:52:30.307Z,1025.65
2019-01-05T12:53:24.010Z,1025.68
2019-01-05T12:55:24.067Z,1025.65
2019-01-05T12:56:25.416Z,1025.64
2019-01-05T12:57:24.078Z,1025.66
2019-01-05T12:58:24.148Z,1025.69
2019-01-05T12:59:24.240Z,1025.71
2019-01-05T13:01:25.837Z,1025.70
2019-01-05T13:02:24.534Z,1025.62
2019-01-05T13:03:24.418Z,1025.67
2019-01-05T13:04:24.445Z,1025.63
2019-01-05T13:05:24.450Z,1025.71
2019-01-05T13:06:24.430Z,1025.74
2019-01-05T13:08:24.480Z,1025.70
2019-01-05T13:09:24.796Z,1025.71
2019-01-05T13:10:24.551Z,1025.71
2019-01-05T13:11:24.517Z,1025.63
2019-01-05T13:12:24.585Z,1025.65
2019-01-05T13:13:24.624Z,1025.76
2019-01-05T13:14:24.676Z,1025.69
2019-01-05T13:15:24.928Z,1025.67
2019-01-05T13:16:24.712Z,1025.65
2019-01-05T13:17:24.742Z,1025.70
2019-01-05T13:18:24.769Z,1025.70
2019-01-05T13:20:24.851Z,1025.65
2019-01-05T13:21:24.856Z,1025.68
2019-01-05T13:22:25.234Z,1025.67
2019-01-05T13:23:24.933Z,1025.66
2019-01-05T13:24:24.976Z,1025.68
2019-01-05T13:25:24.989Z,1025.77
2019-01-05T13:26:25.061Z,1025.65
2019-01-05T13:27:25.067Z,1025.64
2019-01-05T13:28:25.052Z,1025.61
2019-01-05T13:29:25.360Z,1025.65
2019-01-05T13:30:25.091Z,1025.61
2019-01-05T13:31:25.211Z,1025.76
2019-01-05T13:32:25.226Z,1025.59
2019-01-05T13:33:25.337Z,1025.63
2019-01-05T13:34:25.282Z,1025.63
2019-01-05T13:35:25.288Z,1025.74
2019-01-05T13:36:25.702Z,1025.63
2019-01-05T13:37:25.349Z,1025.71
2019-01-05T13:38:25.331Z,1025.59
2019-01-05T13:39:25.376Z,1025.76
2019-01-05T13:40:25.479Z,1025.70
2019-01-05T13:42:25.504Z,1025.75
2019-01-05T13:43:25.779Z,1025.82
2019-01-05T13:44:25.591Z,1025.75
2019-01-05T13:45:25.543Z,1025.81
2019-01-05T13:46:25.627Z,1025.79
2019-01-05T13:47:25.660Z,1025.85
2019-01-05T13:49:25.777Z,1025.83
2019-01-05T13:50:26.004Z,1025.86
2019-01-05T13:51:25.775Z,1025.85
2019-01-05T13:52:25.811Z,1025.84
2019-01-05T13:53:25.784Z,1025.89
2019-01-05T13:54:25.823Z,1025.95
2019-01-05T13:55:25.847Z,1025.96
2019-01-05T13:56:26.231Z,1025.96
2019-01-05T13:57:26.239Z,1025.98
2019-01-05T13:58:26.778Z,1025.94
2019-01-05T13:59:26.027Z,1025.98
2019-01-05T14:00:26.053Z,1025.90
2019-01-05T14:01:26.102Z,1025.94
2019-01-05T14:02:26.072Z,1025.92
2019-01-05T14:03:26.097Z,1025.93